Sheffield, Pennsylvania
Current Conditions -  °F | °C
As of 5:53 PM on Saturday 20 Dec 2014 (Local Time) from KBFD Reporting Station
Overcast Overcast  
Wind Chill: 18°   Ceiling: 900
Heat Index: 24°   Visibility: 10mi
Dew Point: 18°   Wind: 5mph
Humidity: 77%   Direction: 270°W
Pressure: 30.19"   Gusts: NA
Location:  41.7°N, 79.04°W
Report Text: KBFD 202253Z AUTO 27004KT 10SM OVC009 M04/M08 A3019 RMK AO2 SLP250 T10441078
Loading
Personal Weather Stations






























Interactive Weather Map New forecast layout! Learn more

10-Day Weather Forecast

Advertisements
Track Severe Weather on mobile